createdAt,value
2019-06-07T00:01:00.000Z,18.0
2019-06-07T00:06:00.000Z,18.0
2019-06-07T00:11:00.000Z,18.0
2019-06-07T00:16:00.000Z,18.0
2019-06-07T00:21:00.000Z,18.0
2019-06-07T00:27:00.000Z,17.9
2019-06-07T00:32:00.000Z,17.9
2019-06-07T00:37:00.000Z,17.9
2019-06-07T00:42:00.000Z,17.8
2019-06-07T00:47:00.000Z,17.8
2019-06-07T00:58:00.000Z,17.7
2019-06-07T01:03:00.000Z,17.7
2019-06-07T01:08:00.000Z,17.6
2019-06-07T01:13:00.000Z,17.5
2019-06-07T01:18:00.000Z,17.5
2019-06-07T01:23:00.000Z,17.4
2019-06-07T01:29:00.000Z,17.3
2019-06-07T01:34:00.000Z,17.2
2019-06-07T01:39:00.000Z,17.2
2019-06-07T01:44:00.000Z,17.1
2019-06-07T01:49:00.000Z,17.0
2019-06-07T01:54:00.000Z,16.9
2019-06-07T01:59:00.000Z,16.9
2019-06-07T02:05:00.000Z,16.8
2019-06-07T02:10:00.000Z,16.8
2019-06-07T02:15:00.000Z,16.8
2019-06-07T02:20:00.000Z,16.8
2019-06-07T02:25:00.000Z,16.8
2019-06-07T02:30:00.000Z,16.8
2019-06-07T02:36:00.000Z,16.8
2019-06-07T02:41:00.000Z,16.7
2019-06-07T02:46:00.000Z,16.7
2019-06-07T02:51:00.000Z,16.7
2019-06-07T02:56:00.000Z,16.7
2019-06-07T03:01:00.000Z,16.7
2019-06-07T03:07:00.000Z,16.7
2019-06-07T03:12:00.000Z,16.7
2019-06-07T03:17:00.000Z,16.7
2019-06-07T03:22:00.000Z,16.8
2019-06-07T03:27:00.000Z,16.8
2019-06-07T03:32:00.000Z,16.8
2019-06-07T03:37:00.000Z,16.8
2019-06-07T03:42:00.000Z,16.8
2019-06-07T03:47:00.000Z,16.9
2019-06-07T03:52:00.000Z,16.9
2019-06-07T03:57:00.000Z,17.0
2019-06-07T04:03:00.000Z,17.0
2019-06-07T04:08:00.000Z,17.1
2019-06-07T04:13:00.000Z,17.2
2019-06-07T04:18:00.000Z,17.2
2019-06-07T04:23:00.000Z,17.2
2019-06-07T04:28:00.000Z,17.2
2019-06-07T04:34:00.000Z,17.3
2019-06-07T04:39:00.000Z,17.3
2019-06-07T04:44:00.000Z,17.4
2019-06-07T04:49:00.000Z,17.5
2019-06-07T04:54:00.000Z,17.6
2019-06-07T04:59:00.000Z,17.7
2019-06-07T05:05:00.000Z,17.8
2019-06-07T05:10:00.000Z,17.9
2019-06-07T05:15:00.000Z,17.9
2019-06-07T05:20:00.000Z,17.9
2019-06-07T05:25:00.000Z,18.0
2019-06-07T05:30:00.000Z,18.0
2019-06-07T05:36:00.000Z,18.0
2019-06-07T05:41:00.000Z,18.1
2019-06-07T05:46:00.000Z,18.2
2019-06-07T05:51:00.000Z,18.3
2019-06-07T05:56:00.000Z,18.4
2019-06-07T06:01:00.000Z,18.5
2019-06-07T06:06:00.000Z,18.6
2019-06-07T06:11:00.000Z,18.9
2019-06-07T06:17:00.000Z,19.1
2019-06-07T06:22:00.000Z,19.3
2019-06-07T06:27:00.000Z,19.4
2019-06-07T06:33:00.000Z,19.4
2019-06-07T06:38:00.000Z,19.6
2019-06-07T06:43:00.000Z,19.8
2019-06-07T06:48:00.000Z,20.0
2019-06-07T06:53:00.000Z,20.3
2019-06-07T06:58:00.000Z,20.7
2019-06-07T07:04:00.000Z,21.1
2019-06-07T07:09:00.000Z,21.5
2019-06-07T07:14:00.000Z,21.7
2019-06-07T07:19:00.000Z,22.1
2019-06-07T07:24:00.000Z,22.2
2019-06-07T07:29:00.000Z,22.6
2019-06-07T07:35:00.000Z,23.3
2019-06-07T07:40:00.000Z,24.0
2019-06-07T07:46:00.000Z,24.4
2019-06-07T07:51:00.000Z,24.7
2019-06-07T07:56:00.000Z,25.3
2019-06-07T08:01:00.000Z,25.9
2019-06-07T08:06:00.000Z,26.3
2019-06-07T08:11:00.000Z,26.9
2019-06-07T08:16:00.000Z,27.4
2019-06-07T08:21:00.000Z,27.9
2019-06-07T08:26:00.000Z,28.5
2019-06-07T08:31:00.000Z,28.7
2019-06-07T08:36:00.000Z,29.0
2019-06-07T08:41:00.000Z,29.2
2019-06-07T08:47:00.000Z,29.5
2019-06-07T08:52:00.000Z,29.7
2019-06-07T08:57:00.000Z,29.8
2019-06-07T09:02:00.000Z,30.0
2019-06-07T09:07:00.000Z,29.6
2019-06-07T09:12:00.000Z,29.8
2019-06-07T09:17:00.000Z,30.2
2019-06-07T09:22:00.000Z,29.5
2019-06-07T09:27:00.000Z,28.7
2019-06-07T09:32:00.000Z,28.9
2019-06-07T09:37:00.000Z,29.5
2019-06-07T09:43:00.000Z,29.4
2019-06-07T09:49:00.000Z,28.7
2019-06-07T09:54:00.000Z,28.4
2019-06-07T10:00:00.000Z,28.6
2019-06-07T10:05:00.000Z,28.7
2019-06-07T10:10:00.000Z,28.8
2019-06-07T10:15:00.000Z,28.3
2019-06-07T10:20:00.000Z,28.1
2019-06-07T10:25:00.000Z,27.8
2019-06-07T10:30:00.000Z,27.9
2019-06-07T10:35:00.000Z,28.4
2019-06-07T10:40:00.000Z,28.9
2019-06-07T10:45:00.000Z,29.3
2019-06-07T10:50:00.000Z,29.5
2019-06-07T10:55:00.000Z,29.5
2019-06-07T11:00:00.000Z,28.9
2019-06-07T11:05:00.000Z,28.2
2019-06-07T11:10:00.000Z,28.0
2019-06-07T11:15:00.000Z,27.9
2019-06-07T11:20:00.000Z,28.0
2019-06-07T11:25:00.000Z,28.0
2019-06-07T11:30:00.000Z,28.1
2019-06-07T11:35:00.000Z,28.2
2019-06-07T11:40:00.000Z,28.3
2019-06-07T11:45:00.000Z,28.7
2019-06-07T11:50:00.000Z,28.9
2019-06-07T11:56:00.000Z,28.9
2019-06-07T12:01:00.000Z,29.0
2019-06-07T12:06:00.000Z,28.8
2019-06-07T12:11:00.000Z,28.4
2019-06-07T12:16:00.000Z,28.4
2019-06-07T12:21:00.000Z,28.4
2019-06-07T12:26:00.000Z,28.3
2019-06-07T12:31:00.000Z,28.0
2019-06-07T12:36:00.000Z,28.2
2019-06-07T12:41:00.000Z,28.2
2019-06-07T12:46:00.000Z,28.2
2019-06-07T12:51:00.000Z,28.1
2019-06-07T12:56:00.000Z,28.4
2019-06-07T13:01:00.000Z,28.9
2019-06-07T13:06:00.000Z,29.2
2019-06-07T13:11:00.000Z,29.3
2019-06-07T13:16:00.000Z,29.3
2019-06-07T13:21:00.000Z,29.4
2019-06-07T13:26:00.000Z,29.7
2019-06-07T13:31:00.000Z,29.7
2019-06-07T13:36:00.000Z,29.5
2019-06-07T13:41:00.000Z,29.6
2019-06-07T13:46:00.000Z,29.7
2019-06-07T13:51:00.000Z,29.8
2019-06-07T13:56:00.000Z,29.7
2019-06-07T14:02:00.000Z,29.9
2019-06-07T14:07:00.000Z,29.9
2019-06-07T14:12:00.000Z,29.8
2019-06-07T14:17:00.000Z,29.8
2019-06-07T14:22:00.000Z,29.7
2019-06-07T14:27:00.000Z,29.5
2019-06-07T14:32:00.000Z,29.3
2019-06-07T14:37:00.000Z,29.3
2019-06-07T14:42:00.000Z,29.3
2019-06-07T14:47:00.000Z,29.3
2019-06-07T14:52:00.000Z,29.2
2019-06-07T14:57:00.000Z,29.3
2019-06-07T15:02:00.000Z,29.3
2019-06-07T15:07:00.000Z,29.2
2019-06-07T15:12:00.000Z,28.9
2019-06-07T15:17:00.000Z,28.7
2019-06-07T15:22:00.000Z,28.7
2019-06-07T15:27:00.000Z,28.6
2019-06-07T15:32:00.000Z,28.5
2019-06-07T15:37:00.000Z,28.6
2019-06-07T15:42:00.000Z,28.5
2019-06-07T15:47:00.000Z,28.4
2019-06-07T15:52:00.000Z,28.3
2019-06-07T15:57:00.000Z,28.2
2019-06-07T16:02:00.000Z,28.0
2019-06-07T16:07:00.000Z,27.9
2019-06-07T16:12:00.000Z,27.8
2019-06-07T16:18:00.000Z,27.7
2019-06-07T16:23:00.000Z,27.5
2019-06-07T16:28:00.000Z,27.4
2019-06-07T16:33:00.000Z,27.2
2019-06-07T16:38:00.000Z,27.1
2019-06-07T16:43:00.000Z,27.1
2019-06-07T16:48:00.000Z,27.0
2019-06-07T16:53:00.000Z,26.9
2019-06-07T16:58:00.000Z,26.9
2019-06-07T17:03:00.000Z,26.8
2019-06-07T17:08:00.000Z,26.7
2019-06-07T17:13:00.000Z,26.6
2019-06-07T17:18:00.000Z,26.4
2019-06-07T17:23:00.000Z,26.4
2019-06-07T17:28:00.000Z,26.2
2019-06-07T17:33:00.000Z,26.1
2019-06-07T17:38:00.000Z,26.0
2019-06-07T17:43:00.000Z,25.9
2019-06-07T17:49:00.000Z,25.7
2019-06-07T17:54:00.000Z,25.6
2019-06-07T17:59:00.000Z,25.5
2019-06-07T18:04:00.000Z,25.4
2019-06-07T18:09:00.000Z,25.3
2019-06-07T18:14:00.000Z,25.2
2019-06-07T18:19:00.000Z,25.1
2019-06-07T18:24:00.000Z,24.9
2019-06-07T18:29:00.000Z,24.8
2019-06-07T18:34:00.000Z,24.7
2019-06-07T18:39:00.000Z,24.7
2019-06-07T18:44:00.000Z,24.6
2019-06-07T18:49:00.000Z,24.5
2019-06-07T18:54:00.000Z,24.4
2019-06-07T18:59:00.000Z,24.3
2019-06-07T19:04:00.000Z,24.2
2019-06-07T19:09:00.000Z,24.1
2019-06-07T19:14:00.000Z,24.0
2019-06-07T19:19:00.000Z,23.9
2019-06-07T19:24:00.000Z,23.8
2019-06-07T19:29:00.000Z,23.7
2019-06-07T19:34:00.000Z,23.6
2019-06-07T19:39:00.000Z,23.6
2019-06-07T19:44:00.000Z,23.5
2019-06-07T19:50:00.000Z,23.3
2019-06-07T19:55:00.000Z,23.3
2019-06-07T20:00:00.000Z,23.2
2019-06-07T20:05:00.000Z,23.1
2019-06-07T20:10:00.000Z,23.0
2019-06-07T20:15:00.000Z,22.9
2019-06-07T20:20:00.000Z,22.8
2019-06-07T20:25:00.000Z,22.8
2019-06-07T20:30:00.000Z,22.7
2019-06-07T20:35:00.000Z,22.6
2019-06-07T20:40:00.000Z,22.6
2019-06-07T20:45:00.000Z,22.5
2019-06-07T20:50:00.000Z,22.4
2019-06-07T20:55:00.000Z,22.4
2019-06-07T21:00:00.000Z,22.3
2019-06-07T21:05:00.000Z,22.2
2019-06-07T21:10:00.000Z,22.2
2019-06-07T21:15:00.000Z,22.1
2019-06-07T21:20:00.000Z,22.0
2019-06-07T21:25:00.000Z,21.9
2019-06-07T21:30:00.000Z,21.8
2019-06-07T21:35:00.000Z,21.7
2019-06-07T21:40:00.000Z,21.7
2019-06-07T21:45:00.000Z,21.6
2019-06-07T21:51:00.000Z,21.5
2019-06-07T21:56:00.000Z,21.4
2019-06-07T22:01:00.000Z,21.4
2019-06-07T22:06:00.000Z,21.3
2019-06-07T22:11:00.000Z,21.2
2019-06-07T22:16:00.000Z,21.2
2019-06-07T22:21:00.000Z,21.1
2019-06-07T22:26:00.000Z,21.1
2019-06-07T22:31:00.000Z,21.0
2019-06-07T22:36:00.000Z,21.0
2019-06-07T22:41:00.000Z,20.9
2019-06-07T22:46:00.000Z,20.8
2019-06-07T22:51:00.000Z,20.8
2019-06-07T22:56:00.000Z,20.7
2019-06-07T23:01:00.000Z,20.6
2019-06-07T23:06:00.000Z,20.5
2019-06-07T23:11:00.000Z,20.5
2019-06-07T23:16:00.000Z,20.4
2019-06-07T23:21:00.000Z,20.3
2019-06-07T23:26:00.000Z,20.3
2019-06-07T23:31:00.000Z,20.2
2019-06-07T23:36:00.000Z,20.2
2019-06-07T23:41:00.000Z,20.1
2019-06-07T23:47:00.000Z,20.0
2019-06-07T23:52:00.000Z,19.9
2019-06-07T23:57:00.000Z,19.9
